Hauptseite
METAR-TAF:

METAR-TAF

Flughäfen :

Gatwick Airport

London-Gatwick, England

Breite: 51-09N, Länge: 000-11W, Höhe: 62 m

Beobachtung

Neuester Wetterbericht von vor 21 Minuten, um 10:50 UTC
Wind 5 kt aus unterschiedlichen Richtungen
Temperatur 25°C
Luftfeuchtigkeit 39%
Luftdruck 1019 hPa
Sichtweite 10 km oder mehr
keine Wolken unter 1500 m und keine Kumulonimbus oder Gewitterwolken

METAR: EGKK 191050Z VRB05KT CAVOK 25/10 Q1019

Zeit: 12:11 (11:11 UTC)

Prognose

Neuester Wetterbericht von vor 6 Stunden und 19 Minuten, um 04:52 UTC
Gültige Prognose vom 19 um 06 UTC bis 20 um 12 UTC
Wind 3 kt aus unterschiedlichen Richtungen
Sichtweite 10 km oder mehr
Leicht bewölkt in der Höhe von 4500 ft

TAF: EGKK 190452Z 1906/2012 VRB03KT 9999 FEW045

Wetterbeobachtungen und Prognosen von mehr als 4000 Flughäfen (METAR und TAF Bericht).

Die verfügbaren Stationen werden durch gelbe und rote Markierungen auf der Karte dargestellt.

Führen Sie die Maus auf sie, um den Namen der Station zu sehen.

Darauf klicken, um die Beobachtung von Wetterbeobachtungen und Prognosen zu sehen.

Um die Karte zu ändern : klicken Sie auf den grünen Tasten mit einem schwarzen Kreuz Zum Vergrößern, auf den grünen Button mit einem Gedankenstrich zu verkleinern, oder auf die grünen Pfeile für benachbarte Karten.


METAR-TAF: